createdAt,value
2019-02-26T00:00:42.356Z,59.24
2019-02-26T00:03:11.864Z,59.41
2019-02-26T00:05:42.700Z,59.36
2019-02-26T00:08:17.017Z,59.36
2019-02-26T00:10:46.117Z,59.50
2019-02-26T00:13:16.918Z,59.57
2019-02-26T00:15:48.441Z,59.65
2019-02-26T00:18:21.356Z,59.68
2019-02-26T00:20:52.006Z,59.65
2019-02-26T00:23:25.682Z,59.82
2019-02-26T00:25:57.071Z,59.82
2019-02-26T00:28:28.047Z,59.79
2019-02-26T00:30:59.524Z,59.90
2019-02-26T00:33:31.292Z,60.01
2019-02-26T00:36:02.037Z,60.07
2019-02-26T00:38:33.570Z,60.21
2019-02-26T00:41:06.071Z,60.29
2019-02-26T00:43:37.147Z,60.28
2019-02-26T00:46:08.645Z,60.45
2019-02-26T00:48:41.429Z,60.51
2019-02-26T00:51:12.796Z,60.51
2019-02-26T00:53:43.556Z,60.58
2019-02-26T00:56:14.372Z,60.46
2019-02-26T00:58:46.294Z,60.50
2019-02-26T01:01:19.499Z,60.56
2019-02-26T01:03:51.862Z,60.67
2019-02-26T01:06:24.647Z,60.81
2019-02-26T01:08:55.502Z,61.00
2019-02-26T01:11:27.892Z,61.16
2019-02-26T01:13:59.574Z,61.28
2019-02-26T01:16:30.574Z,61.58
2019-02-26T01:19:01.352Z,61.52
2019-02-26T01:21:34.119Z,61.48
2019-02-26T01:24:06.378Z,61.49
2019-02-26T01:26:37.205Z,61.63
2019-02-26T01:29:08.035Z,61.66
2019-02-26T01:31:38.544Z,61.97
2019-02-26T01:34:11.439Z,61.89
2019-02-26T01:36:42.638Z,61.95
2019-02-26T01:39:16.110Z,61.89
2019-02-26T01:41:47.832Z,61.93
2019-02-26T01:44:19.201Z,61.99
2019-02-26T01:46:49.928Z,61.94
2019-02-26T01:49:21.551Z,62.05
2019-02-26T01:51:53.909Z,62.10
2019-02-26T01:54:24.608Z,62.10
2019-02-26T01:56:55.013Z,62.24
2019-02-26T01:59:25.491Z,62.37
2019-02-26T02:01:56.321Z,62.67
2019-02-26T02:04:27.153Z,62.65
2019-02-26T02:06:58.963Z,62.79
2019-02-26T02:09:30.446Z,63.11
2019-02-26T02:12:02.189Z,63.24
2019-02-26T02:14:33.642Z,63.68
2019-02-26T02:17:06.041Z,63.49
2019-02-26T02:19:36.954Z,63.70
2019-02-26T02:22:07.689Z,63.86
2019-02-26T02:24:39.323Z,63.98
2019-02-26T02:27:12.655Z,64.24
2019-02-26T02:29:45.738Z,64.36
2019-02-26T02:32:15.976Z,64.21
2019-02-26T02:34:46.778Z,64.23
2019-02-26T02:37:19.170Z,64.44
2019-02-26T02:39:49.578Z,64.55
2019-02-26T02:42:22.057Z,64.79
2019-02-26T02:44:52.993Z,65.02
2019-02-26T02:47:25.301Z,64.89
2019-02-26T02:49:55.822Z,65.46
2019-02-26T02:52:27.044Z,65.56
2019-02-26T02:54:59.146Z,65.92
2019-02-26T02:57:31.986Z,66.20
2019-02-26T03:00:02.972Z,66.28
2019-02-26T03:02:37.458Z,66.59
2019-02-26T03:05:10.967Z,66.34
2019-02-26T03:07:42.898Z,66.42
2019-02-26T03:10:15.505Z,66.54
2019-02-26T03:12:48.700Z,66.74
2019-02-26T03:15:21.846Z,66.72
2019-02-26T03:17:53.012Z,66.91
2019-02-26T03:20:24.748Z,67.02
2019-02-26T03:22:56.245Z,67.20
2019-02-26T03:25:29.024Z,67.18
2019-02-26T03:27:59.556Z,67.46
2019-02-26T03:30:34.002Z,67.49
2019-02-26T03:33:04.454Z,67.54
2019-02-26T03:35:34.809Z,67.93
2019-02-26T03:38:05.655Z,68.04
2019-02-26T03:40:36.234Z,68.24
2019-02-26T03:43:07.714Z,67.98
2019-02-26T03:45:39.506Z,68.34
2019-02-26T03:48:10.331Z,68.57
2019-02-26T03:50:44.058Z,68.61
2019-02-26T03:53:13.227Z,68.57
2019-02-26T03:55:44.289Z,68.72
2019-02-26T03:58:15.005Z,68.33
2019-02-26T04:00:46.901Z,68.60
2019-02-26T04:03:17.832Z,69.03
2019-02-26T04:05:48.544Z,68.95
2019-02-26T04:08:21.882Z,69.18
2019-02-26T04:10:53.599Z,68.90
2019-02-26T04:13:23.854Z,69.53
2019-02-26T04:15:57.047Z,69.11
2019-02-26T04:18:27.021Z,69.46
2019-02-26T04:21:03.203Z,69.41
2019-02-26T04:23:30.247Z,69.74
2019-02-26T04:26:04.035Z,69.68
2019-02-26T04:28:40.167Z,69.39
2019-02-26T04:31:31.431Z,69.59
2019-02-26T04:34:17.016Z,69.54
2019-02-26T04:37:13.252Z,69.42
2019-02-26T04:39:52.982Z,69.20
2019-02-26T04:42:46.036Z,69.73
2019-02-26T04:45:32.050Z,70.16
2019-02-26T04:48:05.837Z,70.17
2019-02-26T04:50:38.765Z,70.46
2019-02-26T04:53:11.075Z,70.28
2019-02-26T04:55:44.726Z,70.40
2019-02-26T04:58:15.557Z,70.75
2019-02-26T05:00:46.419Z,70.51
2019-02-26T05:03:20.046Z,70.56
2019-02-26T05:05:53.676Z,70.73
2019-02-26T05:08:21.742Z,71.08
2019-02-26T05:10:54.268Z,70.83
2019-02-26T05:13:27.005Z,71.13
2019-02-26T05:15:57.466Z,71.31
2019-02-26T05:18:29.059Z,71.26
2019-02-26T05:21:02.741Z,71.16
2019-02-26T05:23:33.688Z,70.99
2019-02-26T05:26:05.621Z,71.09
2019-02-26T05:28:37.791Z,71.44
2019-02-26T05:31:11.622Z,71.30
2019-02-26T05:33:41.236Z,71.59
2019-02-26T05:36:14.219Z,71.67
2019-02-26T05:38:44.266Z,71.81
2019-02-26T05:41:15.004Z,71.88
2019-02-26T05:43:49.299Z,71.92
2019-02-26T05:46:19.567Z,71.79
2019-02-26T05:48:51.186Z,71.83
2019-02-26T05:51:21.868Z,71.84
2019-02-26T05:53:52.671Z,72.22
2019-02-26T05:56:23.423Z,72.28
2019-02-26T05:58:54.157Z,72.40
2019-02-26T06:01:27.691Z,72.28
2019-02-26T06:03:57.168Z,72.34
2019-02-26T06:06:28.013Z,72.08
2019-02-26T06:08:59.856Z,72.32
2019-02-26T06:11:34.015Z,72.82
2019-02-26T06:14:07.163Z,72.29
2019-02-26T06:16:36.373Z,72.76
2019-02-26T06:19:11.006Z,72.47
2019-02-26T06:21:44.231Z,72.61
2019-02-26T06:24:14.716Z,72.30
2019-02-26T06:26:45.675Z,72.43
2019-02-26T06:29:20.058Z,72.60
2019-02-26T06:31:49.415Z,72.42
2019-02-26T06:34:21.487Z,72.48
2019-02-26T06:36:55.655Z,72.69
2019-02-26T06:39:29.826Z,72.57
2019-02-26T06:42:00.100Z,72.56
2019-02-26T06:44:31.922Z,72.47
2019-02-26T06:47:04.303Z,72.74
2019-02-26T06:49:38.127Z,72.67
2019-02-26T06:52:13.545Z,72.90
2019-02-26T06:54:50.543Z,73.20
2019-02-26T06:57:17.800Z,73.33
2019-02-26T06:59:50.910Z,73.21
2019-02-26T07:02:21.648Z,73.33
2019-02-26T07:04:52.406Z,73.02
2019-02-26T07:07:23.206Z,73.24
2019-02-26T07:09:57.495Z,72.88
2019-02-26T07:12:26.687Z,73.13
2019-02-26T07:14:58.180Z,73.26
2019-02-26T07:17:31.638Z,73.07
2019-02-26T07:20:03.173Z,73.18
2019-02-26T07:22:34.182Z,73.28
2019-02-26T07:25:08.366Z,73.61
2019-02-26T07:27:40.334Z,73.64
2019-02-26T07:30:12.770Z,73.82
2019-02-26T07:32:45.735Z,73.55
2019-02-26T07:35:17.761Z,73.35
2019-02-26T07:37:48.581Z,73.22
2019-02-26T07:40:19.335Z,73.10
2019-02-26T07:42:50.208Z,72.63
2019-02-26T07:45:22.860Z,72.54
2019-02-26T07:47:55.511Z,72.45
2019-02-26T07:50:25.733Z,72.10
2019-02-26T07:52:57.575Z,72.12
2019-02-26T07:55:32.187Z,72.36
2019-02-26T07:58:01.551Z,71.79
2019-02-26T08:00:32.890Z,71.79
2019-02-26T08:03:04.855Z,72.19
2019-02-26T08:05:35.276Z,71.96
2019-02-26T08:08:06.385Z,71.48
2019-02-26T08:10:39.368Z,71.72
2019-02-26T08:13:08.970Z,71.54
2019-02-26T08:15:41.850Z,71.29
2019-02-26T08:18:13.541Z,71.13
2019-02-26T08:20:44.300Z,70.91
2019-02-26T08:23:17.044Z,70.52
2019-02-26T08:25:47.732Z,70.42
2019-02-26T08:28:20.844Z,70.52
2019-02-26T08:30:53.031Z,70.23
2019-02-26T08:33:24.932Z,70.36
2019-02-26T08:35:56.375Z,70.28
2019-02-26T08:38:29.407Z,70.60
2019-02-26T08:40:59.703Z,70.46
2019-02-26T08:43:33.683Z,70.44
2019-02-26T08:46:04.536Z,70.54
2019-02-26T08:48:38.928Z,70.45
2019-02-26T08:51:13.687Z,70.58
2019-02-26T08:53:41.793Z,70.24
2019-02-26T08:56:12.600Z,70.30
2019-02-26T08:58:45.359Z,69.83
2019-02-26T09:01:18.671Z,69.87
2019-02-26T09:03:50.686Z,69.62
2019-02-26T09:06:21.776Z,69.67
2019-02-26T09:08:52.519Z,69.54
2019-02-26T09:11:22.899Z,69.66
2019-02-26T09:13:53.670Z,69.42
2019-02-26T09:16:27.707Z,69.51
2019-02-26T09:18:57.652Z,69.23
2019-02-26T09:21:28.637Z,69.12
2019-02-26T09:24:00.059Z,68.73
2019-02-26T09:26:31.535Z,68.73
2019-02-26T09:29:04.894Z,68.77
2019-02-26T09:31:35.680Z,68.36
2019-02-26T09:34:06.647Z,67.90
2019-02-26T09:36:37.583Z,67.83
2019-02-26T09:39:10.201Z,67.36
2019-02-26T09:41:42.610Z,67.06
2019-02-26T09:44:13.149Z,66.70
2019-02-26T09:46:44.090Z,66.59
2019-02-26T09:49:14.701Z,66.19
2019-02-26T09:51:56.735Z,66.51
2019-02-26T09:54:30.306Z,66.13
2019-02-26T09:57:03.624Z,65.99
2019-02-26T09:59:38.369Z,65.95
2019-02-26T10:02:08.399Z,65.84
2019-02-26T10:04:42.491Z,66.23
2019-02-26T10:07:14.391Z,66.73
2019-02-26T10:09:48.322Z,66.41
2019-02-26T10:12:20.587Z,66.85
2019-02-26T10:14:52.326Z,66.34
2019-02-26T10:17:23.463Z,66.09
2019-02-26T10:19:59.377Z,65.81
2019-02-26T10:22:33.325Z,66.46
2019-02-26T10:25:03.280Z,66.38
2019-02-26T10:27:36.102Z,66.41
2019-02-26T10:30:11.218Z,66.02
2019-02-26T10:32:44.090Z,65.68
2019-02-26T10:35:32.450Z,66.07
2019-02-26T10:38:07.682Z,66.01
2019-02-26T10:40:50.598Z,66.01
2019-02-26T10:43:12.619Z,66.52
2019-02-26T10:45:47.473Z,65.86
2019-02-26T10:48:19.837Z,65.15
2019-02-26T10:50:51.771Z,64.75
2019-02-26T10:53:22.700Z,64.54
2019-02-26T10:55:53.664Z,64.36
2019-02-26T10:58:24.446Z,64.21
2019-02-26T11:00:58.504Z,64.17
2019-02-26T11:03:29.735Z,64.05
2019-02-26T11:06:00.492Z,63.96
2019-02-26T11:08:32.805Z,64.20
2019-02-26T11:11:04.770Z,64.22
2019-02-26T11:13:37.270Z,64.87
2019-02-26T11:16:08.086Z,65.04
2019-02-26T11:18:39.828Z,65.22
2019-02-26T11:21:11.350Z,64.78
2019-02-26T11:23:43.975Z,64.49
2019-02-26T11:26:18.046Z,64.42
2019-02-26T11:28:47.970Z,63.80
2019-02-26T11:31:25.271Z,64.00
2019-02-26T11:34:15.228Z,64.24
2019-02-26T11:36:49.026Z,64.26
2019-02-26T11:39:19.796Z,64.11
2019-02-26T11:41:53.475Z,64.73
2019-02-26T11:44:25.307Z,64.55
2019-02-26T11:46:56.558Z,64.63
2019-02-26T11:49:27.896Z,65.02
2019-02-26T11:51:58.664Z,65.46
2019-02-26T11:54:32.677Z,65.09
2019-02-26T11:57:04.275Z,64.88
2019-02-26T11:59:35.683Z,64.23
2019-02-26T12:02:07.241Z,64.33
2019-02-26T12:04:38.068Z,64.10
2019-02-26T12:07:09.884Z,63.90
2019-02-26T12:09:41.309Z,63.89
2019-02-26T12:12:13.208Z,64.22
2019-02-26T12:14:45.780Z,63.72
2019-02-26T12:17:16.369Z,63.56
2019-02-26T12:19:48.608Z,64.15
2019-02-26T12:22:22.683Z,64.54
2019-02-26T12:24:55.998Z,64.21
2019-02-26T12:27:26.152Z,64.22
2019-02-26T12:29:56.927Z,64.33
2019-02-26T12:32:29.632Z,65.15
2019-02-26T12:35:00.009Z,65.58
2019-02-26T12:37:32.835Z,65.59
2019-02-26T12:40:07.507Z,65.58
2019-02-26T12:42:38.012Z,65.56
2019-02-26T12:45:13.608Z,65.48
2019-02-26T12:47:46.283Z,65.87
2019-02-26T12:50:18.322Z,65.48
2019-02-26T12:52:51.577Z,65.00
2019-02-26T12:55:28.558Z,64.59
2019-02-26T12:57:56.484Z,64.82
2019-02-26T13:00:26.720Z,64.49
2019-02-26T13:02:57.510Z,64.65
2019-02-26T13:05:27.971Z,64.75
2019-02-26T13:07:58.549Z,64.47
2019-02-26T13:10:29.427Z,64.68
2019-02-26T13:13:03.861Z,64.60
2019-02-26T13:15:32.827Z,64.87
2019-02-26T13:18:06.944Z,65.13
2019-02-26T13:20:37.420Z,65.32
2019-02-26T13:23:17.054Z,65.69
2019-02-26T13:25:43.404Z,65.77
2019-02-26T13:28:13.608Z,65.77
2019-02-26T13:30:44.515Z,65.48
2019-02-26T13:33:17.840Z,65.73
2019-02-26T13:35:52.421Z,66.32
2019-02-26T13:38:24.785Z,66.05
2019-02-26T13:40:58.790Z,66.51
2019-02-26T13:43:25.212Z,66.15
2019-02-26T13:45:56.074Z,66.08
2019-02-26T13:48:27.027Z,66.02
2019-02-26T13:50:58.368Z,66.41
2019-02-26T13:53:29.250Z,66.35
2019-02-26T13:56:00.157Z,66.41
2019-02-26T13:58:30.981Z,66.26
2019-02-26T14:01:02.112Z,66.07
2019-02-26T14:03:32.984Z,66.36
2019-02-26T14:06:06.984Z,66.26
2019-02-26T14:08:37.827Z,66.66
2019-02-26T14:11:10.893Z,67.10
2019-02-26T14:13:41.634Z,67.34
2019-02-26T14:16:12.690Z,67.39
2019-02-26T14:18:43.512Z,67.51
2019-02-26T14:21:14.708Z,67.40
2019-02-26T14:23:45.487Z,67.34
2019-02-26T14:26:16.240Z,67.88
2019-02-26T14:28:46.995Z,67.82
2019-02-26T14:31:17.817Z,67.88
2019-02-26T14:33:48.646Z,67.89
2019-02-26T14:36:19.596Z,67.69
2019-02-26T14:38:50.571Z,67.75
2019-02-26T14:41:21.484Z,67.36
2019-02-26T14:43:52.429Z,67.87
2019-02-26T14:46:26.469Z,67.94
2019-02-26T14:48:57.238Z,67.59
2019-02-26T14:51:28.079Z,67.78
2019-02-26T14:53:58.908Z,67.94
2019-02-26T14:56:29.958Z,67.88
2019-02-26T14:59:00.798Z,67.62
2019-02-26T15:01:31.745Z,67.58
2019-02-26T15:04:02.633Z,67.22
2019-02-26T15:06:33.504Z,67.21
2019-02-26T15:09:04.754Z,67.47
2019-02-26T15:11:35.593Z,67.17
2019-02-26T15:14:06.839Z,67.67
2019-02-26T15:16:37.676Z,67.59
2019-02-26T15:19:08.510Z,67.44
2019-02-26T15:21:39.450Z,67.71
2019-02-26T15:24:10.634Z,67.95
2019-02-26T15:26:41.542Z,68.37
2019-02-26T15:29:12.467Z,68.57
2019-02-26T15:31:43.199Z,68.59
2019-02-26T15:34:14.257Z,68.48
2019-02-26T15:36:44.782Z,68.49
2019-02-26T15:39:15.598Z,68.44
2019-02-26T15:41:48.217Z,68.08
2019-02-26T15:44:18.988Z,68.08
2019-02-26T15:46:49.861Z,68.28
2019-02-26T15:49:20.357Z,68.10
2019-02-26T15:51:51.599Z,68.04
2019-02-26T15:54:22.479Z,67.98
2019-02-26T15:56:53.760Z,68.06
2019-02-26T15:59:24.659Z,67.96
2019-02-26T16:01:57.389Z,67.89
2019-02-26T16:04:27.859Z,68.31
2019-02-26T16:06:58.886Z,68.62
2019-02-26T16:09:29.444Z,68.58
2019-02-26T16:12:00.187Z,68.60
2019-02-26T16:14:31.220Z,68.43
2019-02-26T16:17:02.174Z,68.51
2019-02-26T16:19:33.008Z,68.96
2019-02-26T16:22:03.846Z,68.47
2019-02-26T16:24:34.875Z,68.59
2019-02-26T16:27:05.695Z,68.53
2019-02-26T16:29:36.546Z,69.29
2019-02-26T16:32:07.280Z,69.40
2019-02-26T16:34:38.330Z,69.84
2019-02-26T16:37:09.160Z,70.30
2019-02-26T16:39:40.401Z,70.46
2019-02-26T16:42:11.845Z,70.61
2019-02-26T16:44:43.316Z,70.82
2019-02-26T16:47:14.623Z,70.33
2019-02-26T16:49:45.713Z,70.21
2019-02-26T16:52:16.738Z,70.34
2019-02-26T16:54:47.676Z,70.53
2019-02-26T16:57:19.031Z,70.60
2019-02-26T16:59:49.864Z,70.68
2019-02-26T17:02:27.519Z,70.68
2019-02-26T17:04:58.095Z,70.63
2019-02-26T17:07:28.575Z,70.71
2019-02-26T17:10:01.030Z,70.74
2019-02-26T17:12:31.964Z,71.00
2019-02-26T17:15:02.899Z,70.72
2019-02-26T17:17:34.369Z,70.77
2019-02-26T17:20:10.282Z,71.00
2019-02-26T17:22:41.662Z,71.08
2019-02-26T17:25:12.570Z,71.09
2019-02-26T17:27:43.513Z,71.36
2019-02-26T17:30:15.978Z,71.55
2019-02-26T17:32:47.303Z,71.50
2019-02-26T17:35:21.057Z,71.43
2019-02-26T17:37:52.050Z,71.53
2019-02-26T17:40:24.162Z,71.46
2019-02-26T17:42:54.656Z,71.43
2019-02-26T17:45:34.957Z,71.61
2019-02-26T17:48:06.380Z,71.59
2019-02-26T17:50:39.358Z,71.68
2019-02-26T17:53:10.646Z,71.89
2019-02-26T17:55:41.443Z,71.86
2019-02-26T17:58:11.988Z,71.98
2019-02-26T18:00:44.473Z,72.05
2019-02-26T18:03:15.415Z,72.56
2019-02-26T18:05:51.328Z,72.74
2019-02-26T18:08:19.567Z,73.45
2019-02-26T18:10:50.611Z,73.22
2019-02-26T18:13:21.642Z,73.17
2019-02-26T18:15:55.936Z,73.73
2019-02-26T18:18:24.937Z,73.22
2019-02-26T18:20:57.283Z,73.06
2019-02-26T18:23:28.416Z,73.47
2019-02-26T18:25:59.330Z,73.70
2019-02-26T18:28:30.217Z,73.42
2019-02-26T18:31:00.968Z,73.37
2019-02-26T18:33:35.577Z,73.80
2019-02-26T18:36:04.464Z,73.73
2019-02-26T18:38:35.423Z,73.80
2019-02-26T18:41:06.356Z,73.62
2019-02-26T18:43:37.192Z,73.54
2019-02-26T18:46:08.124Z,73.97
2019-02-26T18:48:39.104Z,73.74
2019-02-26T18:51:10.651Z,73.64
2019-02-26T18:53:41.204Z,73.66
2019-02-26T18:56:12.582Z,73.81
2019-02-26T18:58:43.473Z,73.99
2019-02-26T19:01:14.380Z,73.75
2019-02-26T19:03:46.990Z,73.69
2019-02-26T19:06:19.134Z,73.69
2019-02-26T19:08:49.715Z,73.76
2019-02-26T19:11:20.644Z,73.91
2019-02-26T19:13:51.627Z,73.96
2019-02-26T19:16:22.099Z,73.96
2019-02-26T19:18:54.527Z,74.00
2019-02-26T19:21:25.483Z,73.92
2019-02-26T19:23:58.956Z,73.99
2019-02-26T19:26:31.376Z,74.11
2019-02-26T19:29:02.578Z,74.19
2019-02-26T19:31:34.457Z,74.23
2019-02-26T19:34:05.167Z,74.30
2019-02-26T19:36:35.638Z,74.30
2019-02-26T19:39:07.363Z,75.02
2019-02-26T19:41:38.882Z,74.65
2019-02-26T19:44:10.097Z,74.72
2019-02-26T19:46:41.924Z,74.67
2019-02-26T19:49:14.295Z,75.01
2019-02-26T19:51:45.118Z,75.48
2019-02-26T19:54:15.878Z,74.94
2019-02-26T19:56:48.545Z,74.83
2019-02-26T19:59:19.143Z,74.95
2019-02-26T20:01:49.967Z,74.97
2019-02-26T20:04:22.384Z,74.95
2019-02-26T20:06:53.245Z,75.09
2019-02-26T20:09:25.333Z,75.01
2019-02-26T20:11:57.410Z,75.05
2019-02-26T20:14:31.910Z,75.12
2019-02-26T20:17:14.430Z,75.04
2019-02-26T20:19:44.660Z,75.10
2019-02-26T20:22:17.279Z,75.29
2019-02-26T20:24:49.819Z,75.29
2019-02-26T20:27:23.457Z,75.31
2019-02-26T20:29:54.880Z,75.36
2019-02-26T20:32:30.878Z,75.40
2019-02-26T20:35:00.177Z,75.52
2019-02-26T20:37:31.462Z,75.61
2019-02-26T20:40:10.343Z,75.86
2019-02-26T20:42:42.204Z,75.96
2019-02-26T20:45:18.145Z,75.95
2019-02-26T20:47:48.532Z,76.05
2019-02-26T20:50:23.877Z,76.04
2019-02-26T20:52:55.169Z,75.99
2019-02-26T20:55:28.500Z,76.04
2019-02-26T20:57:59.076Z,75.99
2019-02-26T21:00:30.417Z,76.04
2019-02-26T21:03:01.653Z,75.91
2019-02-26T21:05:32.961Z,76.10
2019-02-26T21:08:03.817Z,76.09
2019-02-26T21:10:34.356Z,76.43
2019-02-26T21:13:05.152Z,76.46
2019-02-26T21:15:37.330Z,76.45
2019-02-26T21:18:11.438Z,76.38
2019-02-26T21:20:42.275Z,76.30
2019-02-26T21:23:13.428Z,76.25
2019-02-26T21:25:47.548Z,76.28
2019-02-26T21:28:18.667Z,76.33
2019-02-26T21:30:51.095Z,76.47
2019-02-26T21:33:22.013Z,76.44
2019-02-26T21:35:54.353Z,76.80
2019-02-26T21:38:25.747Z,76.65
2019-02-26T21:40:56.797Z,76.55
2019-02-26T21:43:29.999Z,76.45
2019-02-26T21:46:04.152Z,76.67
2019-02-26T21:48:36.712Z,76.92
2019-02-26T21:51:07.561Z,77.08
2019-02-26T21:53:39.861Z,77.18
2019-02-26T21:56:13.771Z,77.03
2019-02-26T21:58:43.918Z,77.01
2019-02-26T22:01:16.356Z,77.07
2019-02-26T22:03:48.691Z,77.18
2019-02-26T22:06:19.346Z,77.44
2019-02-26T22:08:50.862Z,77.63
2019-02-26T22:11:23.589Z,77.95
2019-02-26T22:13:54.726Z,78.25
2019-02-26T22:16:25.550Z,77.96
2019-02-26T22:19:04.767Z,78.20
2019-02-26T22:21:35.945Z,78.18
2019-02-26T22:24:10.456Z,78.08
2019-02-26T22:26:42.271Z,78.00
2019-02-26T22:29:15.185Z,78.47
2019-02-26T22:31:46.293Z,78.76
2019-02-26T22:34:19.051Z,78.97
2019-02-26T22:36:54.541Z,78.70
2019-02-26T22:39:25.627Z,78.93
2019-02-26T22:41:56.585Z,78.95
2019-02-26T22:44:27.049Z,79.29
2019-02-26T22:46:59.125Z,79.19
2019-02-26T22:49:30.169Z,79.09
2019-02-26T22:52:00.717Z,79.42
2019-02-26T22:54:31.549Z,79.34
2019-02-26T22:57:02.525Z,79.35
2019-02-26T22:59:33.428Z,79.58
2019-02-26T23:02:08.582Z,79.48
2019-02-26T23:04:36.942Z,79.56
2019-02-26T23:07:07.478Z,79.55
2019-02-26T23:09:38.620Z,79.78
2019-02-26T23:12:09.457Z,79.69
2019-02-26T23:14:40.391Z,79.46
2019-02-26T23:17:11.348Z,79.29
2019-02-26T23:19:42.184Z,79.28
2019-02-26T23:22:12.805Z,79.51
2019-02-26T23:24:43.751Z,79.54
2019-02-26T23:27:15.133Z,79.70
2019-02-26T23:29:46.746Z,79.61
2019-02-26T23:32:17.685Z,79.66
2019-02-26T23:35:02.411Z,79.15
2019-02-26T23:37:34.518Z,78.90
2019-02-26T23:40:08.219Z,79.28
2019-02-26T23:42:41.011Z,79.32
2019-02-26T23:45:15.828Z,79.17
2019-02-26T23:47:46.300Z,79.15
2019-02-26T23:50:18.633Z,79.24
2019-02-26T23:52:49.502Z,78.98
2019-02-26T23:55:20.276Z,78.88
2019-02-26T23:57:51.127Z,79.00
